Time;durP1;ratioP1;P1;durP2;ratioP2;P2;SDS_P1;SDS_P2;PMS_P1;PMS_P2;Temp;Humidity;BMP_temperature;BMP_pressure;BME280_temperature;BME280_humidity;BME280_pressure;Samples;Min_cycle;Max_cycle;Signal;HPM_P1;HPM_P2
2021/01/26 00:00:58;;;;;;;40.33;15.70;;;0.00;99.90;;;;;;4072822;29;20572;-54
2021/01/26 00:02:59;;;;;;;40.17;17.20;;;0.10;99.90;;;;;;4073421;29;20484;-53
2021/01/26 00:05:00;;;;;;;37.73;17.07;;;0.00;99.90;;;;;;4073749;29;20540;-53
2021/01/26 00:07:02;;;;;;;37.00;15.87;;;0.00;99.90;;;;;;4072521;29;20958;-54
2021/01/26 00:09:03;;;;;;;41.70;16.43;;;0.00;99.90;;;;;;4073936;29;20481;-56
2021/01/26 00:11:06;;;;;;;39.73;15.70;;;0.00;99.90;;;;;;4071889;29;20478;-52
2021/01/26 00:13:08;;;;;;;41.20;16.17;;;0.00;99.90;;;;;;4073693;29;20487;-53
2021/01/26 00:15:12;;;;;;;39.47;16.00;;;0.00;99.90;;;;;;4072976;29;20489;-52
2021/01/26 00:17:14;;;;;;;37.00;16.43;;;0.00;99.90;;;;;;4073757;29;20477;-53
2021/01/26 00:19:15;;;;;;;35.00;15.10;;;0.00;99.90;;;;;;4071281;29;21130;-54
2021/01/26 00:21:16;;;;;;;33.70;14.37;;;0.00;99.90;;;;;;4073399;29;20494;-54
2021/01/26 00:23:18;;;;;;;38.13;16.00;;;0.00;99.90;;;;;;4075271;29;20482;-54
2021/01/26 00:25:23;;;;;;;32.27;14.97;;;0.00;99.90;;;;;;4073110;29;20469;-53
2021/01/26 00:27:24;;;;;;;36.10;15.60;;;0.00;99.90;;;;;;4073818;29;20502;-54
2021/01/26 00:29:25;;;;;;;36.43;15.23;;;0.10;99.90;;;;;;4073335;29;20466;-54
2021/01/26 00:31:29;;;;;;;29.80;13.47;;;0.10;99.90;;;;;;4072580;29;20962;-55
2021/01/26 00:33:30;;;;;;;36.83;15.27;;;0.10;99.90;;;;;;4074095;29;20485;-54
2021/01/26 00:35:32;;;;;;;31.50;13.70;;;0.10;99.90;;;;;;4072304;29;20485;-53
2021/01/26 00:37:33;;;;;;;32.30;13.90;;;0.10;99.90;;;;;;4072124;29;20955;-54
2021/01/26 00:39:35;;;;;;;29.20;13.13;;;0.10;99.90;;;;;;4075298;29;20485;-52
2021/01/26 00:41:36;;;;;;;31.23;13.40;;;0.10;99.90;;;;;;4072470;29;20502;-52
2021/01/26 00:43:37;;;;;;;27.30;12.27;;;0.10;99.90;;;;;;4072406;29;20497;-54
2021/01/26 00:45:39;;;;;;;33.80;13.30;;;0.10;99.90;;;;;;4072778;29;20477;-52
2021/01/26 00:47:41;;;;;;;29.27;12.37;;;0.10;99.90;;;;;;4074040;29;20485;-54
2021/01/26 00:49:42;;;;;;;27.90;12.63;;;0.20;99.90;;;;;;4071099;29;20916;-52
2021/01/26 00:51:43;;;;;;;27.43;12.57;;;0.20;99.90;;;;;;4076930;29;20474;-52
2021/01/26 00:53:45;;;;;;;29.30;11.97;;;0.20;99.90;;;;;;4073048;29;20474;-54
2021/01/26 00:55:46;;;;;;;27.00;12.30;;;0.20;99.90;;;;;;4075468;29;20474;-54
2021/01/26 00:57:47;;;;;;;23.93;10.57;;;0.20;99.90;;;;;;4073696;29;21040;-52
2021/01/26 00:59:50;;;;;;;26.80;11.87;;;0.30;99.90;;;;;;4074033;29;20550;-54
2021/01/26 01:01:52;;;;;;;31.50;12.77;;;0.30;99.90;;;;;;4073877;29;20493;-52
2021/01/26 01:03:54;;;;;;;26.33;11.23;;;0.30;99.90;;;;;;4073119;29;20477;-54
2021/01/26 01:05:55;;;;;;;27.37;11.23;;;0.30;99.90;;;;;;4074720;29;20484;-53
2021/01/26 01:07:57;;;;;;;27.40;11.23;;;0.30;99.90;;;;;;4071351;29;20518;-54
2021/01/26 01:09:58;;;;;;;26.33;11.13;;;0.30;99.90;;;;;;4071943;29;20553;-52
2021/01/26 01:12:00;;;;;;;25.60;11.40;;;0.30;99.90;;;;;;4070905;29;20485;-52
2021/01/26 01:14:01;;;;;;;24.23;11.80;;;0.30;99.90;;;;;;4071571;29;20541;-54
2021/01/26 01:16:02;;;;;;;27.13;11.37;;;0.40;99.90;;;;;;4071961;29;22290;-54
2021/01/26 01:18:04;;;;;;;24.67;11.23;;;0.40;99.90;;;;;;4072445;29;20517;-52
2021/01/26 01:20:08;;;;;;;23.03;10.13;;;0.40;99.90;;;;;;4073066;29;20505;-56
2021/01/26 01:22:09;;;;;;;23.47;11.37;;;0.40;99.90;;;;;;4072082;29;20485;-57
2021/01/26 01:24:11;;;;;;;26.37;10.93;;;0.40;99.90;;;;;;4072817;29;20906;-57
2021/01/26 01:26:12;;;;;;;23.37;10.13;;;0.40;99.90;;;;;;4072671;29;20484;-56
2021/01/26 01:28:13;;;;;;;24.10;10.73;;;0.50;99.90;;;;;;4073866;29;20502;-57
2021/01/26 01:30:18;;;;;;;23.80;10.23;;;0.50;99.90;;;;;;4074778;29;20487;-57
2021/01/26 01:32:19;;;;;;;27.17;10.07;;;0.50;99.90;;;;;;4071389;29;20503;-56
2021/01/26 01:34:20;;;;;;;20.77;9.53;;;0.50;99.90;;;;;;4072864;29;20490;-57
2021/01/26 01:36:23;;;;;;;23.53;10.50;;;0.50;99.90;;;;;;4073944;29;20495;-57
2021/01/26 01:38:24;;;;;;;22.13;10.57;;;0.50;99.90;;;;;;4072329;29;20550;-57
2021/01/26 01:40:29;;;;;;;25.17;10.30;;;0.50;99.90;;;;;;4072207;29;20487;-57
2021/01/26 01:42:30;;;;;;;23.33;9.93;;;0.50;99.90;;;;;;4072579;29;20475;-57
2021/01/26 01:44:32;;;;;;;25.40;10.93;;;0.50;99.90;;;;;;4072771;29;20466;-57
2021/01/26 01:46:41;;;;;;;24.17;9.90;;;0.60;99.90;;;;;;4073714;29;20552;-56
2021/01/26 01:48:42;;;;;;;24.07;9.83;;;0.60;99.90;;;;;;4073409;29;20985;-57
2021/01/26 01:50:49;;;;;;;22.80;10.37;;;0.60;99.90;;;;;;4074334;29;21067;-57
2021/01/26 01:52:59;;;;;;;25.13;10.87;;;0.60;99.90;;;;;;4073339;29;20473;-58
2021/01/26 01:55:05;;;;;;;28.10;11.40;;;0.60;99.90;;;;;;4071972;29;21077;-57
2021/01/26 01:57:20;;;;;;;23.73;10.50;;;0.60;99.90;;;;;;4071967;29;20490;-57
2021/01/26 01:59:25;;;;;;;22.40;10.43;;;0.60;99.90;;;;;;4073559;29;20889;-57
2021/01/26 02:01:30;;;;;;;26.83;10.60;;;0.60;99.90;;;;;;4072165;29;20475;-57
2021/01/26 02:03:33;;;;;;;28.23;10.57;;;0.60;99.90;;;;;;4070181;29;20493;-56
2021/01/26 02:05:35;;;;;;;22.03;10.03;;;0.60;99.90;;;;;;4070678;29;20478;-57
2021/01/26 02:07:36;;;;;;;28.37;10.33;;;0.60;99.90;;;;;;4070670;29;20520;-57
2021/01/26 02:09:41;;;;;;;21.60;10.30;;;0.60;99.90;;;;;;4071489;29;21036;-57
2021/01/26 02:11:45;;;;;;;25.00;10.87;;;0.50;99.90;;;;;;4072693;29;20481;-57
2021/01/26 02:13:47;;;;;;;27.37;11.60;;;0.50;99.90;;;;;;4074611;29;20478;-57
2021/01/26 02:15:53;;;;;;;27.77;11.17;;;0.50;99.90;;;;;;4073200;29;20474;-57
2021/01/26 02:18:11;;;;;;;21.07;9.97;;;0.50;99.90;;;;;;4070853;29;20542;-56
2021/01/26 02:20:49;;;;;;;23.70;9.90;;;0.50;99.90;;;;;;4072584;29;20464;-57
2021/01/26 02:23:30;;;;;;;25.90;10.20;;;0.50;99.90;;;;;;4073062;29;20483;-57
2021/01/26 02:26:20;;;;;;;22.67;10.07;;;0.50;99.90;;;;;;4048436;29;20470;-56
2021/01/26 02:28:52;;;;;;;24.07;9.97;;;0.50;99.90;;;;;;4071267;29;20498;-57
2021/01/26 02:31:12;;;;;;;24.23;10.00;;;0.50;99.90;;;;;;4072635;29;20477;-57
2021/01/26 02:33:50;;;;;;;24.77;10.60;;;0.50;99.90;;;;;;4073984;29;20491;-57
2021/01/26 02:36:35;;;;;;;24.07;9.93;;;0.50;99.90;;;;;;4041165;29;20961;-57
2021/01/26 02:39:08;;;;;;;24.33;9.43;;;0.50;99.90;;;;;;4068749;29;20482;-56
2021/01/26 02:41:19;;;;;;;24.83;10.60;;;0.50;99.90;;;;;;4072020;29;20489;-57
2021/01/26 02:43:45;;;;;;;22.57;9.83;;;0.40;99.90;;;;;;4073818;29;20489;-58
2021/01/26 02:45:56;;;;;;;24.67;10.63;;;0.40;99.90;;;;;;4076264;29;20548;-57
2021/01/26 02:48:16;;;;;;;22.63;9.50;;;0.40;99.90;;;;;;4073058;29;21084;-57
2021/01/26 02:50:24;;;;;;;22.47;10.27;;;0.50;99.90;;;;;;4075576;29;20477;-57
2021/01/26 02:52:32;;;;;;;25.53;10.37;;;0.50;99.90;;;;;;4074331;29;20478;-57
2021/01/26 02:54:44;;;;;;;20.93;9.90;;;0.50;99.90;;;;;;4073643;29;20814;-57
2021/01/26 02:56:53;;;;;;;21.33;8.97;;;0.50;99.90;;;;;;4072380;29;20481;-57
2021/01/26 02:58:59;;;;;;;21.50;9.33;;;0.50;99.90;;;;;;4076377;29;20467;-56
2021/01/26 03:01:03;;;;;;;21.37;9.43;;;0.50;99.90;;;;;;4073470;29;20474;-57
2021/01/26 03:03:09;;;;;;;19.87;8.53;;;0.50;99.90;;;;;;4073355;29;20483;-57
2021/01/26 03:05:17;;;;;;;26.70;9.63;;;0.50;99.90;;;;;;4075075;29;20477;-57
2021/01/26 03:07:22;;;;;;;19.60;8.37;;;0.50;99.90;;;;;;4075645;29;20516;-57
2021/01/26 03:09:29;;;;;;;20.80;9.70;;;0.50;99.90;;;;;;4073418;29;20481;-57
2021/01/26 03:11:36;;;;;;;19.63;9.00;;;0.50;99.90;;;;;;4073553;29;20994;-57
2021/01/26 03:13:43;;;;;;;21.07;9.43;;;0.50;99.90;;;;;;4071418;29;20469;-57
2021/01/26 03:15:50;;;;;;;20.90;9.37;;;0.50;99.90;;;;;;4073927;29;20475;-58
2021/01/26 03:17:54;;;;;;;23.83;9.33;;;0.50;99.90;;;;;;4074759;29;20538;-57
2021/01/26 03:19:58;;;;;;;20.07;9.03;;;0.60;99.90;;;;;;4075936;29;20476;-57
2021/01/26 03:22:02;;;;;;;23.80;9.20;;;0.60;99.90;;;;;;4073267;29;20581;-57
2021/01/26 03:24:07;;;;;;;16.70;8.20;;;0.60;99.90;;;;;;4073860;29;20545;-57
2021/01/26 03:26:12;;;;;;;16.70;7.83;;;0.60;99.90;;;;;;4074449;29;20477;-57
2021/01/26 03:28:15;;;;;;;22.00;8.93;;;0.60;99.90;;;;;;4072528;29;20502;-57
2021/01/26 03:30:21;;;;;;;21.10;9.27;;;0.60;99.90;;;;;;4075236;29;20473;-57
2021/01/26 03:32:26;;;;;;;21.03;8.97;;;0.60;99.90;;;;;;4073593;29;20475;-57
2021/01/26 03:34:27;;;;;;;16.67;7.97;;;0.60;99.90;;;;;;4073965;29;20523;-57
2021/01/26 03:36:28;;;;;;;18.07;7.57;;;0.70;99.90;;;;;;4076500;29;20483;-57
2021/01/26 03:38:33;;;;;;;19.10;7.90;;;0.70;99.90;;;;;;4073789;29;20474;-60
2021/01/26 03:40:34;;;;;;;17.53;8.13;;;0.70;99.90;;;;;;4075037;29;20470;-57
2021/01/26 03:42:36;;;;;;;16.23;8.00;;;0.70;99.90;;;;;;4073796;29;20502;-58
2021/01/26 03:44:38;;;;;;;19.00;8.33;;;0.70;99.90;;;;;;4074269;29;20491;-57
2021/01/26 03:47:04;;;;;;;16.37;7.33;;;0.70;99.90;;;;;;4073224;29;20482;-56
2021/01/26 03:49:19;;;;;;;14.87;6.73;;;0.70;99.90;;;;;;4074508;29;20986;-57
2021/01/26 03:51:32;;;;;;;12.33;6.73;;;0.80;99.90;;;;;;4073819;29;20474;-58
2021/01/26 03:54:07;;;;;;;12.63;5.73;;;0.80;99.90;;;;;;4074320;29;20574;-58
2021/01/26 03:56:18;;;;;;;13.50;5.50;;;0.90;99.90;;;;;;4074197;29;20961;-57
2021/01/26 03:58:34;;;;;;;10.90;4.50;;;0.90;99.90;;;;;;4075216;29;20470;-58
2021/01/26 04:00:41;;;;;;;8.87;4.13;;;0.90;99.90;;;;;;4074078;29;20474;-58
2021/01/26 04:02:56;;;;;;;6.77;4.03;;;1.00;99.90;;;;;;4074035;29;21231;-58
2021/01/26 04:05:06;;;;;;;7.50;3.80;;;1.00;99.90;;;;;;4075958;29;20526;-58
2021/01/26 04:07:17;;;;;;;6.10;3.83;;;1.10;99.90;;;;;;4072848;29;20582;-59
2021/01/26 04:09:23;;;;;;;5.87;3.67;;;1.10;99.90;;;;;;4073535;29;20477;-58
2021/01/26 04:11:29;;;;;;;6.60;4.23;;;1.10;99.90;;;;;;4073528;29;20492;-57
2021/01/26 04:13:39;;;;;;;9.07;4.60;;;1.20;99.90;;;;;;4076066;29;20472;-58
2021/01/26 04:15:48;;;;;;;9.40;5.07;;;1.20;99.90;;;;;;4073124;29;20497;-59
2021/01/26 04:17:52;;;;;;;9.37;5.30;;;1.20;99.90;;;;;;4074068;29;22452;-58
2021/01/26 04:19:56;;;;;;;11.10;5.93;;;1.30;99.90;;;;;;4073588;29;20474;-58
2021/01/26 04:21:59;;;;;;;11.93;6.10;;;1.30;99.90;;;;;;4072587;29;20957;-58
2021/01/26 04:24:01;;;;;;;13.83;6.40;;;1.30;99.90;;;;;;4071954;29;20563;-58
2021/01/26 04:26:08;;;;;;;9.77;6.20;;;1.30;99.90;;;;;;4072481;29;20491;-58
2021/01/26 04:28:12;;;;;;;12.03;5.83;;;1.30;99.90;;;;;;4074631;29;20584;-59
2021/01/26 04:30:14;;;;;;;10.03;5.70;;;1.20;99.90;;;;;;4072540;29;20503;-59
2021/01/26 04:32:16;;;;;;;9.93;5.40;;;1.20;99.90;;;;;;4073042;29;20544;-58
2021/01/26 04:34:18;;;;;;;11.60;6.00;;;1.10;99.90;;;;;;4072867;29;20479;-59
2021/01/26 04:36:22;;;;;;;12.83;6.30;;;1.10;99.90;;;;;;4073173;29;20475;-58
2021/01/26 04:38:23;;;;;;;11.67;6.53;;;1.00;99.90;;;;;;4071999;29;20862;-58
2021/01/26 04:40:26;;;;;;;9.27;5.50;;;1.00;99.90;;;;;;4074649;29;21010;-58
2021/01/26 04:42:29;;;;;;;14.17;6.10;;;1.00;99.90;;;;;;4073852;29;20470;-57
2021/01/26 04:45:01;;;;;;;10.17;5.50;;;1.00;99.90;;;;;;4073641;29;20481;-58
2021/01/26 04:47:12;;;;;;;10.97;4.87;;;1.10;99.90;;;;;;4069006;29;20493;-58
2021/01/26 04:49:19;;;;;;;8.10;4.83;;;1.10;99.90;;;;;;4072159;29;20497;-57
2021/01/26 04:51:29;;;;;;;9.83;5.37;;;1.10;99.90;;;;;;4073641;29;20467;-57
2021/01/26 04:53:45;;;;;;;10.20;5.43;;;1.10;99.90;;;;;;4072579;29;20485;-57
2021/01/26 04:55:55;;;;;;;10.97;5.07;;;1.10;99.90;;;;;;4073233;29;20970;-57
2021/01/26 04:58:17;;;;;;;10.13;5.00;;;1.10;99.90;;;;;;4072353;29;20475;-57
2021/01/26 05:00:30;;;;;;;7.50;4.40;;;1.20;99.90;;;;;;4073773;29;20859;-57
2021/01/26 05:02:47;;;;;;;8.53;4.27;;;1.20;99.90;;;;;;4072014;29;20874;-57
2021/01/26 05:04:52;;;;;;;9.27;4.30;;;1.10;99.90;;;;;;4073943;29;20475;-58
2021/01/26 05:07:01;;;;;;;8.40;4.70;;;1.10;99.90;;;;;;4073919;29;20515;-56
2021/01/26 05:09:06;;;;;;;7.23;4.10;;;1.10;99.90;;;;;;4072221;29;21013;-57
2021/01/26 05:11:12;;;;;;;6.23;3.90;;;1.10;99.90;;;;;;4071206;29;20474;-57
2021/01/26 05:13:19;;;;;;;10.63;4.67;;;1.10;99.90;;;;;;4074893;29;20517;-57
2021/01/26 05:15:24;;;;;;;7.80;4.33;;;1.20;99.90;;;;;;4074301;29;20465;-58
2021/01/26 05:17:33;;;;;;;8.53;5.00;;;1.00;99.90;;;;;;4071452;29;20480;-58
2021/01/26 05:19:38;;;;;;;10.07;4.77;;;1.00;99.90;;;;;;4072931;29;21021;-58
2021/01/26 05:21:46;;;;;;;9.10;5.00;;;1.00;99.90;;;;;;4073178;29;20500;-58
2021/01/26 05:23:54;;;;;;;6.90;4.30;;;1.00;99.90;;;;;;4072863;29;20488;-59
2021/01/26 05:25:56;;;;;;;10.50;4.60;;;1.10;99.90;;;;;;4073898;29;21032;-58
2021/01/26 05:27:57;;;;;;;9.80;5.03;;;1.10;99.90;;;;;;4073425;29;20557;-58
2021/01/26 05:29:59;;;;;;;10.57;5.50;;;1.10;99.90;;;;;;4073299;29;20526;-58
2021/01/26 05:32:03;;;;;;;9.27;5.33;;;1.10;99.90;;;;;;4072695;29;20519;-57
2021/01/26 05:34:08;;;;;;;9.90;4.87;;;1.20;99.90;;;;;;4073252;29;20473;-58
2021/01/26 05:36:11;;;;;;;10.53;5.00;;;1.20;99.90;;;;;;4072138;29;20471;-58
2021/01/26 05:38:12;;;;;;;11.30;5.50;;;1.30;99.90;;;;;;4071477;29;20544;-57
2021/01/26 05:40:19;;;;;;;8.77;5.50;;;1.30;99.90;;;;;;4072091;29;20477;-58
2021/01/26 05:42:23;;;;;;;7.70;4.57;;;1.30;99.90;;;;;;4071550;29;20498;-58
2021/01/26 05:44:25;;;;;;;8.40;4.27;;;1.40;99.90;;;;;;4071604;29;20504;-58
2021/01/26 05:46:36;;;;;;;9.27;4.00;;;1.40;99.90;;;;;;4073364;29;20483;-59
2021/01/26 05:48:48;;;;;;;8.67;4.30;;;1.40;99.90;;;;;;4070186;29;20510;-59
2021/01/26 05:50:50;;;;;;;8.83;4.40;;;1.40;99.90;;;;;;4071339;29;20472;-58
2021/01/26 05:52:54;;;;;;;8.60;4.40;;;1.30;99.90;;;;;;4069778;29;20503;-58
2021/01/26 05:54:58;;;;;;;6.50;4.03;;;1.30;99.90;;;;;;4071852;29;20478;-58
2021/01/26 05:57:01;;;;;;;10.00;4.53;;;1.30;99.90;;;;;;4070583;29;20480;-59
2021/01/26 05:59:24;;;;;;;7.97;4.50;;;1.30;99.90;;;;;;4073509;29;20475;-58
2021/01/26 06:01:29;;;;;;;7.90;4.00;;;1.30;99.90;;;;;;4072603;29;20484;-59
2021/01/26 06:03:31;;;;;;;8.57;4.53;;;1.30;99.90;;;;;;4072746;29;20470;-58
2021/01/26 06:05:32;;;;;;;7.97;4.13;;;1.30;99.90;;;;;;4073564;29;20479;-58
2021/01/26 06:07:33;;;;;;;5.67;3.93;;;1.30;99.90;;;;;;4071616;29;21018;-58
2021/01/26 06:09:38;;;;;;;8.17;4.17;;;1.30;99.90;;;;;;4072638;29;20487;-58
2021/01/26 06:11:39;;;;;;;7.33;3.83;;;1.30;99.90;;;;;;4075375;29;21214;-58
2021/01/26 06:13:41;;;;;;;5.87;3.73;;;1.30;99.90;;;;;;4075860;29;20467;-57
2021/01/26 06:15:42;;;;;;;8.70;3.63;;;1.30;99.90;;;;;;4075634;29;20282;-58
2021/01/26 06:17:44;;;;;;;6.57;3.80;;;1.30;99.90;;;;;;4076616;29;20474;-58
2021/01/26 06:19:45;;;;;;;6.73;3.60;;;1.30;99.90;;;;;;4073958;29;20475;-57
2021/01/26 06:21:48;;;;;;;5.27;3.30;;;1.30;99.90;;;;;;4074542;29;20537;-57
2021/01/26 06:23:49;;;;;;;6.60;3.67;;;1.20;99.90;;;;;;4076234;29;20477;-57
2021/01/26 06:25:56;;;;;;;7.03;3.80;;;1.20;99.90;;;;;;4072808;29;20487;-57
2021/01/26 06:28:14;;;;;;;5.77;3.87;;;1.20;99.90;;;;;;4075076;29;21073;-57
2021/01/26 06:30:36;;;;;;;6.13;3.73;;;1.20;99.90;;;;;;4076694;29;20500;-57
2021/01/26 06:32:55;;;;;;;6.03;2.77;;;1.30;99.90;;;;;;4074987;29;20545;-57
2021/01/26 06:35:18;;;;;;;3.70;2.50;;;1.20;99.90;;;;;;4075782;29;20551;-57
2021/01/26 06:37:51;;;;;;;3.73;2.37;;;1.10;99.90;;;;;;4075163;29;20483;-57
2021/01/26 06:40:05;;;;;;;3.53;2.30;;;1.00;99.90;;;;;;4046259;29;20494;-57
2021/01/26 06:42:19;;;;;;;11.90;2.90;;;0.90;99.90;;;;;;4075931;29;20486;-57
2021/01/26 06:44:43;;;;;;;6.13;2.60;;;0.90;99.90;;;;;;4075127;29;20533;-57
2021/01/26 06:47:01;;;;;;;8.13;2.97;;;0.80;99.90;;;;;;4073230;29;20478;-58
2021/01/26 06:49:28;;;;;;;5.70;2.83;;;0.80;99.90;;;;;;4075693;29;20502;-58
2021/01/26 06:52:02;;;;;;;10.47;3.67;;;0.80;99.90;;;;;;4075889;29;20476;-58
2021/01/26 06:54:16;;;;;;;6.53;3.27;;;0.70;99.90;;;;;;4071394;29;20469;-58
2021/01/26 06:56:36;;;;;;;7.23;3.40;;;0.70;99.90;;;;;;4074677;29;20477;-58
2021/01/26 06:59:06;;;;;;;5.87;3.70;;;0.70;99.90;;;;;;4075200;29;20489;-58
2021/01/26 07:01:28;;;;;;;7.13;3.50;;;0.70;99.90;;;;;;4075099;29;20478;-58
2021/01/26 07:04:07;;;;;;;10.87;3.70;;;0.60;99.90;;;;;;4074994;29;21064;-58
2021/01/26 07:06:44;;;;;;;8.20;3.73;;;0.60;99.90;;;;;;4074485;29;20488;-58
2021/01/26 07:09:03;;;;;;;6.73;3.87;;;0.70;99.90;;;;;;4043868;29;20491;-58
2021/01/26 07:11:19;;;;;;;10.07;4.20;;;0.70;99.90;;;;;;4041669;29;20479;-58
2021/01/26 07:13:32;;;;;;;10.53;4.03;;;0.70;99.90;;;;;;4041176;29;20942;-58
2021/01/26 07:15:59;;;;;;;11.27;4.10;;;0.80;99.90;;;;;;4040247;29;20488;-57
2021/01/26 07:18:20;;;;;;;6.20;4.07;;;0.90;99.90;;;;;;4033086;29;20469;-57
2021/01/26 07:20:30;;;;;;;9.93;5.10;;;0.90;99.90;;;;;;4039140;29;20487;-57
2021/01/26 07:23:04;;;;;;;11.83;4.33;;;1.00;99.90;;;;;;4043114;29;20785;-58
2021/01/26 07:25:24;;;;;;;7.77;4.47;;;1.10;99.90;;;;;;4039165;29;20475;-57
2021/01/26 07:28:02;;;;;;;11.37;4.27;;;1.10;99.90;;;;;;4039096;29;20957;-58
2021/01/26 07:30:12;;;;;;;7.80;4.30;;;1.10;99.90;;;;;;4040550;29;20558;-58
2021/01/26 07:32:19;;;;;;;6.57;4.20;;;1.20;99.90;;;;;;4041866;29;20876;-58
2021/01/26 07:34:28;;;;;;;8.77;4.00;;;1.30;99.90;;;;;;4043188;29;20472;-58
2021/01/26 07:36:36;;;;;;;6.60;3.70;;;1.40;99.90;;;;;;4038813;29;20471;-58
2021/01/26 07:38:42;;;;;;;8.43;4.43;;;1.40;99.90;;;;;;4039291;29;20475;-58
2021/01/26 07:40:50;;;;;;;9.03;4.37;;;1.50;99.90;;;;;;4040620;29;20482;-58
2021/01/26 07:43:04;;;;;;;7.73;4.17;;;1.50;99.90;;;;;;4038095;29;20478;-58
2021/01/26 07:45:10;;;;;;;11.97;5.07;;;1.50;99.90;;;;;;4041758;29;20469;-58
2021/01/26 07:47:18;;;;;;;7.97;4.63;;;1.50;99.90;;;;;;4041596;29;20484;-58
2021/01/26 07:49:25;;;;;;;7.37;4.60;;;1.40;99.90;;;;;;4038403;29;20493;-58
2021/01/26 07:51:30;;;;;;;6.90;3.63;;;1.40;99.90;;;;;;4039602;29;20497;-58
2021/01/26 07:53:45;;;;;;;7.13;4.10;;;1.40;99.90;;;;;;4039627;29;20475;-58
2021/01/26 07:55:50;;;;;;;7.73;3.80;;;1.40;99.90;;;;;;4038143;29;20527;-58
2021/01/26 07:58:02;;;;;;;6.32;4.10;;;1.40;99.90;;;;;;4039836;29;20535;-58
2021/01/26 08:00:06;;;;;;;8.27;4.50;;;1.40;99.90;;;;;;4040413;29;20471;-58
2021/01/26 08:02:16;;;;;;;8.30;4.00;;;1.40;99.90;;;;;;4040790;29;20105;-58
2021/01/26 08:04:18;;;;;;;7.90;5.80;;;1.40;99.90;;;;;;4037421;29;20477;-58
2021/01/26 08:06:52;;;;;;;6.03;4.30;;;1.50;99.90;;;;;;4039118;29;20483;-59
2021/01/26 08:08:57;;;;;;;4.40;2.97;;;1.60;99.90;;;;;;4038573;29;20244;-58
2021/01/26 08:11:07;;;;;;;5.30;3.27;;;1.70;99.90;;;;;;4039412;29;20521;-58
2021/01/26 08:13:09;;;;;;;7.43;3.17;;;1.70;99.90;;;;;;4039124;29;20477;-59
2021/01/26 08:15:15;;;;;;;6.70;3.57;;;1.70;99.90;;;;;;4036582;29;20482;-58
2021/01/26 08:17:28;;;;;;;6.10;3.17;;;1.70;99.90;;;;;;4038306;29;20543;-58
2021/01/26 08:19:34;;;;;;;7.67;3.40;;;1.70;99.90;;;;;;4038155;29;20478;-58
2021/01/26 08:21:40;;;;;;;4.17;2.80;;;1.70;99.90;;;;;;4038146;29;20469;-58
2021/01/26 08:23:42;;;;;;;6.27;2.90;;;1.80;99.90;;;;;;4038195;29;20473;-58
2021/01/26 08:25:44;;;;;;;5.30;3.33;;;1.80;99.90;;;;;;4039843;29;20494;-58
2021/01/26 08:27:55;;;;;;;4.93;3.20;;;1.90;99.90;;;;;;4037317;29;20478;-58
2021/01/26 08:29:57;;;;;;;6.27;3.27;;;1.90;99.90;;;;;;4038889;29;20507;-58
2021/01/26 08:32:37;;;;;;;7.23;3.30;;;1.90;99.90;;;;;;4038717;29;20489;-59
2021/01/26 08:34:40;;;;;;;5.20;3.00;;;2.00;99.90;;;;;;4038296;29;20482;-58
2021/01/26 08:36:42;;;;;;;6.87;2.73;;;2.00;99.90;;;;;;4040017;29;20545;-58
2021/01/26 08:38:50;;;;;;;5.63;2.80;;;2.00;99.90;;;;;;4038822;29;20478;-59
2021/01/26 08:41:06;;;;;;;5.50;2.80;;;2.00;99.90;;;;;;4039018;29;20470;-58
2021/01/26 08:43:08;;;;;;;4.20;3.00;;;2.10;99.90;;;;;;4037707;29;21224;-58
2021/01/26 08:45:11;;;;;;;2.90;2.60;;;2.10;99.90;;;;;;4039040;29;20479;-58
2021/01/26 08:47:48;;;;;;;6.07;3.17;;;2.20;99.90;;;;;;4038299;29;20474;-58
2021/01/26 08:49:49;;;;;;;4.78;3.53;;;2.30;99.90;;;;;;4037008;29;20846;-59
2021/01/26 08:51:52;;;;;;;5.97;4.10;;;2.40;99.90;;;;;;4038884;29;20479;-58
2021/01/26 08:54:01;;;;;;;7.28;3.58;;;2.50;99.90;;;;;;4220350;27;21230;-59
2021/01/26 08:56:11;;;;;;;5.83;3.20;;;2.40;99.90;;;;;;4214079;28;20746;-58
2021/01/26 08:58:34;;;;;;;4.80;2.90;;;2.40;99.90;;;;;;4216697;28;20815;-58
2021/01/26 09:00:42;;;;;;;7.73;3.23;;;2.30;99.90;;;;;;4213454;28;20606;-58
2021/01/26 09:02:45;;;;;;;5.40;3.17;;;2.30;99.90;;;;;;4212422;28;20512;-59
2021/01/26 09:04:47;;;;;;;5.03;3.13;;;2.30;99.90;;;;;;4214752;28;20233;-59
2021/01/26 09:06:49;;;;;;;4.23;3.07;;;2.30;99.90;;;;;;4213016;28;20481;-58
2021/01/26 09:08:53;;;;;;;4.40;2.77;;;2.40;99.90;;;;;;4211547;28;20480;-58
2021/01/26 09:10:56;;;;;;;5.43;3.67;;;2.40;99.90;;;;;;4212763;28;20547;-59
2021/01/26 09:13:07;;;;;;;3.63;2.80;;;2.50;99.90;;;;;;4213073;28;20324;-58
2021/01/26 09:15:11;;;;;;;3.37;2.80;;;2.60;99.90;;;;;;4211960;28;20477;-58
2021/01/26 09:17:20;;;;;;;4.30;2.70;;;2.60;99.90;;;;;;4213626;28;20482;-58
2021/01/26 09:19:25;;;;;;;5.77;3.03;;;2.60;99.90;;;;;;4213415;28;20578;-59
2021/01/26 09:21:31;;;;;;;5.97;2.90;;;2.60;99.90;;;;;;4214915;28;20463;-58
2021/01/26 09:23:34;;;;;;;3.97;2.70;;;2.60;99.90;;;;;;4212024;28;20465;-59
2021/01/26 09:25:41;;;;;;;4.10;2.90;;;2.70;99.90;;;;;;4211724;28;20474;-58
2021/01/26 09:27:43;;;;;;;4.87;2.90;;;2.60;99.90;;;;;;4210325;28;20478;-59
2021/01/26 09:29:45;;;;;;;4.43;2.50;;;2.70;99.90;;;;;;4211554;28;21966;-59
2021/01/26 09:31:46;;;;;;;8.57;2.70;;;2.60;99.90;;;;;;4212779;28;20469;-59
2021/01/26 09:33:47;;;;;;;4.97;3.10;;;2.70;99.90;;;;;;4213759;28;20492;-59
2021/01/26 09:35:51;;;;;;;6.87;2.60;;;2.70;99.90;;;;;;4212093;28;20477;-58
2021/01/26 09:38:08;;;;;;;3.57;2.70;;;2.70;99.90;;;;;;4213898;28;20588;-59
2021/01/26 09:40:11;;;;;;;4.20;2.70;;;2.70;99.90;;;;;;4211489;28;20578;-58
2021/01/26 09:42:19;;;;;;;5.10;3.37;;;2.70;99.90;;;;;;4212881;28;20479;-59
2021/01/26 09:44:21;;;;;;;4.37;2.60;;;2.80;99.90;;;;;;4214206;28;21097;-59
2021/01/26 09:46:27;;;;;;;5.23;2.67;;;2.80;99.90;;;;;;4212896;28;20474;-59
2021/01/26 09:48:36;;;;;;;3.80;2.83;;;2.80;99.90;;;;;;4214349;28;20523;-58
2021/01/26 09:50:37;;;;;;;3.00;2.50;;;2.80;99.90;;;;;;4215346;28;22569;-58
2021/01/26 09:52:40;;;;;;;5.55;3.15;;;2.80;99.90;;;;;;4215203;28;20453;-59
2021/01/26 09:54:43;;;;;;;3.53;2.50;;;2.90;99.90;;;;;;4212233;28;20208;-58
2021/01/26 09:56:45;;;;;;;5.37;3.27;;;2.90;99.90;;;;;;4211784;28;20552;-59
2021/01/26 09:58:47;;;;;;;5.03;3.13;;;2.90;99.90;;;;;;4213648;28;20465;-59
2021/01/26 10:00:50;;;;;;;3.87;3.00;;;3.00;99.90;;;;;;4216520;28;20504;-58
2021/01/26 10:02:57;;;;;;;3.23;2.50;;;3.10;99.90;;;;;;4215988;28;20462;-58
2021/01/26 10:04:59;;;;;;;6.80;3.50;;;3.10;99.90;;;;;;4204429;28;20473;-58
2021/01/26 10:07:04;;;;;;;4.90;3.60;;;3.30;99.90;;;;;;4202597;28;20591;-59
2021/01/26 10:09:27;;;;;;;6.83;2.73;;;3.40;99.90;;;;;;4199442;28;20487;-58
2021/01/26 10:11:30;;;;;;;4.37;2.97;;;3.40;99.90;;;;;;4198243;28;20466;-58
2021/01/26 10:13:33;;;;;;;3.37;2.60;;;3.50;99.90;;;;;;4200075;28;20488;-58
2021/01/26 10:15:35;;;;;;;4.20;3.03;;;3.50;99.90;;;;;;4202455;28;20475;-58
2021/01/26 10:17:50;;;;;;;4.57;2.90;;;3.50;99.90;;;;;;4202027;28;20475;-58
2021/01/26 10:19:57;;;;;;;5.50;3.20;;;3.50;99.90;;;;;;4200266;28;20468;-58
2021/01/26 10:22:09;;;;;;;5.73;3.00;;;3.50;99.90;;;;;;4200481;28;20470;-60
2021/01/26 10:24:21;;;;;;;4.30;3.27;;;3.50;99.90;;;;;;4201964;28;20478;-60
2021/01/26 10:26:25;;;;;;;4.40;2.90;;;3.60;99.90;;;;;;4200605;28;20466;-58
2021/01/26 10:28:28;;;;;;;2.80;2.30;;;3.70;99.90;;;;;;4199652;28;20474;-59
2021/01/26 10:30:29;;;;;;;5.53;2.60;;;3.60;99.90;;;;;;4200744;28;20481;-58
2021/01/26 10:32:46;;;;;;;6.53;2.73;;;3.60;99.90;;;;;;4200857;28;20870;-59
2021/01/26 10:34:49;;;;;;;3.63;2.43;;;3.60;99.90;;;;;;4198036;28;20496;-59
2021/01/26 10:36:51;;;;;;;3.00;2.30;;;3.60;99.90;;;;;;4200277;28;20467;-59
2021/01/26 10:38:53;;;;;;;3.40;2.42;;;3.60;99.90;;;;;;4201254;28;20454;-58
2021/01/26 10:41:18;;;;;;;3.20;2.33;;;3.50;99.90;;;;;;4203041;28;20960;-58
2021/01/26 10:43:23;;;;;;;3.42;2.83;;;3.50;99.90;;;;;;4200023;28;20450;-59
2021/01/26 10:45:46;;;;;;;3.20;2.70;;;3.60;99.90;;;;;;4203783;28;20217;-59
2021/01/26 10:47:48;;;;;;;3.33;2.30;;;3.60;99.90;;;;;;4202300;28;20534;-59
2021/01/26 10:49:55;;;;;;;3.10;2.30;;;3.60;99.90;;;;;;4200053;28;20484;-58
2021/01/26 10:51:58;;;;;;;5.03;2.50;;;3.50;99.90;;;;;;4203368;28;20576;-59
2021/01/26 10:54:00;;;;;;;2.97;2.40;;;3.50;99.90;;;;;;4202219;28;20498;-59
2021/01/26 10:56:01;;;;;;;3.17;1.93;;;3.60;99.90;;;;;;4199074;28;21300;-59
2021/01/26 10:58:03;;;;;;;3.63;2.53;;;3.70;99.90;;;;;;4200036;28;20498;-59
2021/01/26 11:00:07;;;;;;;3.95;2.72;;;3.70;99.90;;;;;;4201938;28;21266;-59
2021/01/26 11:02:11;;;;;;;4.72;3.42;;;3.70;99.90;;;;;;4201592;28;20446;-59
2021/01/26 11:04:13;;;;;;;5.50;3.50;;;3.80;99.90;;;;;;4200831;28;20240;-59
2021/01/26 11:06:17;;;;;;;3.38;2.65;;;4.00;99.90;;;;;;4204020;28;20993;-59
2021/01/26 11:08:18;;;;;;;3.40;2.30;;;4.00;99.90;;;;;;4202831;28;20456;-59
2021/01/26 11:10:20;;;;;;;2.40;2.20;;;4.00;99.90;;;;;;4199557;28;20256;-60